createdAt,value
2023-01-07T00:02:11.460Z,5.30
2023-01-07T00:07:14.128Z,5.20
2023-01-07T00:12:16.808Z,5.20
2023-01-07T00:17:22.440Z,5.50
2023-01-07T00:22:24.985Z,5.60
2023-01-07T00:27:27.717Z,5.70
2023-01-07T00:32:48.647Z,5.70
2023-01-07T00:37:53.539Z,5.70
2023-01-07T00:43:01.285Z,5.80
2023-01-07T00:48:04.549Z,5.80
2023-01-07T00:53:07.624Z,5.80
2023-01-07T00:58:20.015Z,5.90
2023-01-07T01:03:24.266Z,5.80
2023-01-07T01:08:26.931Z,5.60
2023-01-07T01:13:29.450Z,5.50
2023-01-07T01:18:31.905Z,5.20
2023-01-07T01:23:35.039Z,5.10
2023-01-07T01:28:38.406Z,4.70
2023-01-07T01:33:41.222Z,4.40
2023-01-07T01:38:44.068Z,4.20
2023-01-07T01:43:47.398Z,4.00
2023-01-07T01:49:00.649Z,3.80
2023-01-07T01:54:09.485Z,3.40
2023-01-07T01:59:17.789Z,3.20
2023-01-07T02:04:23.281Z,3.00
2023-01-07T02:09:25.890Z,3.00
2023-01-07T02:14:34.487Z,3.00
2023-01-07T02:19:54.840Z,3.10
2023-01-07T02:25:03.277Z,3.10
2023-01-07T02:30:27.735Z,3.00
2023-01-07T02:36:09.504Z,3.00
2023-01-07T02:41:21.622Z,2.80
2023-01-07T02:46:54.661Z,2.80
2023-01-07T02:52:08.618Z,2.80
2023-01-07T02:57:26.415Z,2.80
2023-01-07T03:02:50.904Z,3.00
2023-01-07T03:08:12.530Z,6.20
2023-01-07T03:13:19.712Z,3.10
2023-01-07T03:18:30.291Z,3.20
2023-01-07T03:23:41.017Z,3.30
2023-01-07T03:28:45.549Z,3.50
2023-01-07T03:34:00.875Z,3.50
2023-01-07T03:39:07.334Z,3.40
2023-01-07T03:44:11.091Z,3.40
2023-01-07T03:49:14.479Z,3.50
2023-01-07T03:54:18.024Z,3.60
2023-01-07T03:59:21.344Z,3.80
2023-01-07T04:04:25.349Z,3.90
2023-01-07T04:09:28.513Z,3.80
2023-01-07T04:14:31.800Z,3.90
2023-01-07T04:19:38.724Z,4.10
2023-01-07T04:24:41.538Z,4.10
2023-01-07T04:29:45.008Z,4.20
2023-01-07T04:34:47.775Z,4.30
2023-01-07T04:39:50.647Z,4.70
2023-01-07T04:44:54.830Z,4.80
2023-01-07T04:49:58.429Z,4.70
2023-01-07T04:55:03.762Z,4.80
2023-01-07T05:00:08.183Z,5.00
2023-01-07T05:05:11.679Z,5.00
2023-01-07T05:10:16.399Z,5.20
2023-01-07T05:15:19.550Z,5.30
2023-01-07T05:20:22.239Z,5.40
2023-01-07T05:25:25.683Z,5.50
2023-01-07T05:30:28.632Z,5.60
2023-01-07T05:35:32.207Z,5.60
2023-01-07T05:40:37.053Z,5.60
2023-01-07T05:45:43.495Z,5.60
2023-01-07T05:50:47.082Z,5.50
2023-01-07T05:55:49.770Z,5.50
2023-01-07T06:00:53.380Z,5.60
2023-01-07T06:05:56.033Z,5.60
2023-01-07T06:10:58.750Z,5.70
2023-01-07T06:16:07.007Z,5.80
2023-01-07T06:21:09.738Z,5.80
2023-01-07T06:26:12.518Z,5.70
2023-01-07T06:31:15.896Z,5.60
2023-01-07T06:36:19.962Z,5.60
2023-01-07T06:41:22.517Z,5.40
2023-01-07T06:46:25.840Z,5.30
2023-01-07T06:51:28.654Z,5.20
2023-01-07T06:56:31.127Z,5.20
2023-01-07T07:01:34.627Z,5.40
2023-01-07T07:06:37.256Z,5.50
2023-01-07T07:11:40.377Z,5.50
2023-01-07T07:16:43.564Z,5.50
2023-01-07T07:21:48.186Z,5.60
2023-01-07T07:26:51.353Z,5.60
2023-01-07T07:31:54.104Z,5.50
2023-01-07T07:36:57.151Z,5.50
2023-01-07T07:42:03.887Z,5.30
2023-01-07T07:47:06.393Z,5.40
2023-01-07T07:52:09.546Z,5.60
2023-01-07T07:57:12.082Z,5.80
2023-01-07T08:02:15.977Z,5.90
2023-01-07T08:07:32.672Z,5.90
2023-01-07T08:12:37.703Z,6.00
2023-01-07T08:17:40.199Z,6.10
2023-01-07T08:22:42.645Z,6.30
2023-01-07T08:27:45.453Z,6.40
2023-01-07T08:32:48.419Z,6.40
2023-01-07T08:37:51.640Z,6.40
2023-01-07T08:42:58.511Z,6.50
2023-01-07T08:48:01.259Z,6.60
2023-01-07T08:53:03.736Z,6.60
2023-01-07T08:58:07.283Z,6.70
2023-01-07T09:03:09.857Z,7.00
2023-01-07T09:08:13.106Z,7.30
2023-01-07T09:13:15.845Z,7.50
2023-01-07T09:18:20.741Z,7.40
2023-01-07T09:23:24.435Z,7.40
2023-01-07T09:28:27.501Z,7.50
2023-01-07T09:33:30.746Z,7.80
2023-01-07T09:38:34.815Z,8.10
2023-01-07T09:43:59.321Z,7.90
2023-01-07T09:49:05.940Z,8.00
2023-01-07T09:54:24.026Z,7.80
2023-01-07T09:59:27.110Z,7.90
2023-01-07T10:04:45.017Z,8.20
2023-01-07T10:09:54.985Z,8.10
2023-01-07T10:15:02.275Z,8.10
2023-01-07T10:20:16.130Z,8.10
2023-01-07T10:25:48.990Z,8.20
2023-01-07T10:30:52.325Z,8.30
2023-01-07T10:36:24.673Z,8.50
2023-01-07T10:41:42.192Z,8.60
2023-01-07T10:47:32.736Z,8.80
2023-01-07T10:53:21.024Z,8.70
2023-01-07T10:58:24.470Z,8.40
2023-01-07T11:03:27.781Z,8.40
2023-01-07T11:08:41.543Z,8.30
2023-01-07T11:14:21.884Z,8.40
2023-01-07T11:19:46.000Z,8.40
2023-01-07T11:24:48.585Z,8.60
2023-01-07T11:30:00.390Z,8.50
2023-01-07T11:35:07.590Z,8.20
2023-01-07T11:40:12.892Z,8.20
2023-01-07T11:45:17.407Z,8.20
2023-01-07T11:50:54.542Z,8.30
2023-01-07T11:55:58.907Z,8.40
2023-01-07T12:01:10.511Z,8.30
2023-01-07T12:06:18.709Z,8.50
2023-01-07T12:11:22.113Z,8.40
2023-01-07T12:16:28.787Z,8.60
2023-01-07T12:21:52.457Z,8.70
2023-01-07T12:27:13.663Z,8.60
2023-01-07T12:32:26.501Z,8.50
2023-01-07T12:37:38.107Z,8.40
2023-01-07T12:42:51.005Z,8.40
2023-01-07T12:48:02.460Z,8.50
2023-01-07T12:53:33.940Z,8.50
2023-01-07T12:58:43.566Z,8.50
2023-01-07T13:04:04.653Z,8.60
2023-01-07T13:09:32.918Z,8.50
2023-01-07T13:14:44.284Z,8.30
2023-01-07T13:19:46.948Z,8.30
2023-01-07T13:25:12.363Z,8.40
2023-01-07T13:30:50.629Z,8.30
2023-01-07T13:36:05.405Z,8.20
2023-01-07T13:41:43.212Z,8.20
2023-01-07T13:46:47.816Z,8.20
2023-01-07T13:51:50.411Z,8.00
2023-01-07T13:56:53.058Z,8.10
2023-01-07T14:02:20.561Z,8.00
2023-01-07T14:07:23.921Z,8.00
2023-01-07T14:12:50.878Z,8.00
2023-01-07T14:18:54.969Z,7.90
2023-01-07T14:24:28.384Z,7.80
2023-01-07T14:29:46.768Z,7.80
2023-01-07T14:35:15.665Z,7.80
2023-01-07T14:40:27.383Z,7.70
2023-01-07T14:45:42.011Z,7.70
2023-01-07T14:51:12.772Z,7.60
2023-01-07T14:56:30.818Z,7.60
2023-01-07T15:02:01.023Z,7.60
2023-01-07T15:07:05.363Z,7.60
2023-01-07T15:12:35.333Z,7.50
2023-01-07T15:17:41.193Z,7.40
2023-01-07T15:22:52.784Z,7.50
2023-01-07T15:28:53.266Z,7.60
2023-01-07T15:34:17.015Z,7.50
2023-01-07T15:39:26.220Z,7.40
2023-01-07T15:44:41.038Z,7.30
2023-01-07T15:49:43.864Z,7.40
2023-01-07T15:54:46.387Z,7.30
2023-01-07T15:59:52.097Z,7.20
2023-01-07T16:04:57.856Z,7.20
2023-01-07T16:10:01.804Z,7.20
2023-01-07T16:15:28.361Z,7.10
2023-01-07T16:20:37.829Z,6.80
2023-01-07T16:25:42.828Z,4.60
2023-01-07T16:30:46.958Z,6.60
2023-01-07T16:35:52.871Z,6.50
2023-01-07T16:40:55.748Z,6.60
2023-01-07T16:46:26.877Z,6.60
2023-01-07T16:51:38.888Z,6.60
2023-01-07T16:56:55.165Z,6.70
2023-01-07T17:02:00.184Z,6.70
2023-01-07T17:07:03.736Z,6.70
2023-01-07T17:12:06.484Z,6.70
2023-01-07T17:17:17.977Z,6.90
2023-01-07T17:22:33.851Z,6.90
2023-01-07T17:28:04.534Z,6.90
2023-01-07T17:33:07.121Z,6.90
2023-01-07T17:38:13.014Z,6.70
2023-01-07T17:43:33.595Z,6.50
2023-01-07T17:48:36.709Z,6.40
2023-01-07T17:53:59.071Z,6.30
2023-01-07T17:59:01.529Z,6.20
2023-01-07T18:04:04.293Z,6.00
2023-01-07T18:09:08.836Z,5.80
2023-01-07T18:14:14.642Z,5.60
2023-01-07T18:19:17.570Z,5.50
2023-01-07T18:24:21.542Z,5.30
2023-01-07T18:29:24.120Z,5.50
2023-01-07T18:34:26.946Z,5.60
2023-01-07T18:39:29.717Z,5.90
2023-01-07T18:44:32.877Z,6.10
2023-01-07T18:49:35.551Z,6.20
2023-01-07T18:54:39.305Z,6.30
2023-01-07T18:59:42.331Z,6.30
2023-01-07T19:04:46.819Z,6.30
2023-01-07T19:09:49.659Z,6.30
2023-01-07T19:14:52.649Z,6.30
2023-01-07T19:19:55.412Z,6.30
2023-01-07T19:24:58.103Z,6.00
2023-01-07T19:30:00.734Z,5.90
2023-01-07T19:35:03.550Z,5.80
2023-01-07T19:40:07.251Z,5.80
2023-01-07T19:45:10.230Z,5.90
2023-01-07T19:50:12.782Z,5.90
2023-01-07T19:55:16.077Z,5.70
2023-01-07T20:00:18.985Z,5.40
2023-01-07T20:05:21.822Z,5.20
2023-01-07T20:10:24.475Z,4.90
2023-01-07T20:15:27.602Z,4.70
2023-01-07T20:20:30.336Z,4.50
2023-01-07T20:25:32.848Z,4.40
2023-01-07T20:30:37.848Z,4.30
2023-01-07T20:35:40.832Z,4.20
2023-01-07T20:40:43.751Z,4.00
2023-01-07T20:45:46.645Z,3.90
2023-01-07T20:50:49.471Z,3.90
2023-01-07T20:55:59.414Z,3.70
2023-01-07T21:01:03.589Z,3.60
2023-01-07T21:06:09.839Z,3.30
2023-01-07T21:11:14.896Z,3.10
2023-01-07T21:16:18.279Z,3.30
2023-01-07T21:21:26.252Z,3.30
2023-01-07T21:26:29.610Z,3.30
2023-01-07T21:31:32.163Z,3.20
2023-01-07T21:36:34.939Z,3.20
2023-01-07T21:41:37.722Z,3.30
2023-01-07T21:46:40.433Z,3.40
2023-01-07T21:51:43.175Z,3.40
2023-01-07T21:56:45.710Z,3.40
2023-01-07T22:01:49.286Z,3.50
2023-01-07T22:06:51.956Z,3.30
2023-01-07T22:11:54.570Z,3.40
2023-01-07T22:16:57.224Z,3.40
2023-01-07T22:21:59.877Z,3.10
2023-01-07T22:27:02.496Z,3.00
2023-01-07T22:32:05.430Z,3.10
2023-01-07T22:37:16.261Z,3.10
2023-01-07T22:42:24.339Z,3.00
2023-01-07T22:47:32.552Z,3.00
2023-01-07T22:52:37.067Z,3.00
2023-01-07T22:57:40.882Z,3.00
2023-01-07T23:02:43.659Z,3.00
2023-01-07T23:07:46.391Z,3.00
2023-01-07T23:12:49.088Z,2.80
2023-01-07T23:17:51.641Z,2.90
2023-01-07T23:22:54.222Z,2.80
2023-01-07T23:27:56.765Z,2.90
2023-01-07T23:32:59.235Z,2.80
2023-01-07T23:38:01.834Z,2.80
2023-01-07T23:43:04.451Z,2.80
2023-01-07T23:48:07.093Z,2.80
2023-01-07T23:53:09.590Z,2.60
2023-01-07T23:58:12.161Z,2.60
